sensor_id;sensor_type;location;lat;lon;timestamp;pressure;altitude;pressure_sealevel;temperature;humidity
70730;BME280;58315;53.336;55.932;2023-04-25T00:00:31;100736.94;;;13.71;37.04
70730;BME280;58315;53.336;55.932;2023-04-25T00:02:57;100734.53;;;13.68;37.08
70730;BME280;58315;53.336;55.932;2023-04-25T00:05:23;100730.75;;;13.71;37.06
70730;BME280;58315;53.336;55.932;2023-04-25T00:07:49;100734.94;;;13.64;37.23
70730;BME280;58315;53.336;55.932;2023-04-25T00:10:16;100730.94;;;13.37;37.71
70730;BME280;58315;53.336;55.932;2023-04-25T00:12:42;100736.06;;;13.29;37.71
70730;BME280;58315;53.336;55.932;2023-04-25T00:15:08;100733.19;;;13.21;37.85
70730;BME280;58315;53.336;55.932;2023-04-25T00:17:35;100730.59;;;13.10;37.89
70730;BME280;58315;53.336;55.932;2023-04-25T00:20:02;100730.09;;;13.04;38.17
70730;BME280;58315;53.336;55.932;2023-04-25T00:22:31;100732.34;;;12.88;38.55
70730;BME280;58315;53.336;55.932;2023-04-25T00:24:57;100726.81;;;12.80;38.68
70730;BME280;58315;53.336;55.932;2023-04-25T00:27:26;100724.19;;;12.80;38.81
70730;BME280;58315;53.336;55.932;2023-04-25T00:29:52;100730.44;;;12.79;38.88
70730;BME280;58315;53.336;55.932;2023-04-25T00:32:18;100729.19;;;12.83;38.90
70730;BME280;58315;53.336;55.932;2023-04-25T00:34:45;100717.78;;;12.71;39.19
70730;BME280;58315;53.336;55.932;2023-04-25T00:37:11;100722.50;;;12.68;39.31
70730;BME280;58315;53.336;55.932;2023-04-25T00:39:37;100719.75;;;12.69;39.14
70730;BME280;58315;53.336;55.932;2023-04-25T00:42:04;100709.47;;;12.65;39.42
70730;BME280;58315;53.336;55.932;2023-04-25T00:44:31;100720.59;;;12.70;39.14
70730;BME280;58315;53.336;55.932;2023-04-25T00:46:57;100718.88;;;12.80;38.87
70730;BME280;58315;53.336;55.932;2023-04-25T00:49:24;100716.47;;;12.77;39.14
70730;BME280;58315;53.336;55.932;2023-04-25T00:51:50;100716.94;;;12.71;39.34
70730;BME280;58315;53.336;55.932;2023-04-25T00:54:16;100709.38;;;12.66;39.38
70730;BME280;58315;53.336;55.932;2023-04-25T00:56:42;100717.72;;;12.62;39.55
70730;BME280;58315;53.336;55.932;2023-04-25T00:59:09;100712.13;;;12.65;39.58
70730;BME280;58315;53.336;55.932;2023-04-25T01:01:35;100718.66;;;12.61;39.25
70730;BME280;58315;53.336;55.932;2023-04-25T01:04:02;100719.88;;;12.57;39.58
70730;BME280;58315;53.336;55.932;2023-04-25T01:06:28;100712.31;;;12.52;39.46
70730;BME280;58315;53.336;55.932;2023-04-25T01:08:54;100709.75;;;12.50;39.36
70730;BME280;58315;53.336;55.932;2023-04-25T01:11:20;100723.53;;;12.44;39.67
70730;BME280;58315;53.336;55.932;2023-04-25T01:13:47;100722.31;;;12.37;39.71
70730;BME280;58315;53.336;55.932;2023-04-25T01:16:13;100720.16;;;12.31;40.05
70730;BME280;58315;53.336;55.932;2023-04-25T01:18:40;100725.34;;;12.33;40.10
70730;BME280;58315;53.336;55.932;2023-04-25T01:21:11;100732.69;;;12.29;40.34
70730;BME280;58315;53.336;55.932;2023-04-25T01:23:40;100737.50;;;12.13;40.56
70730;BME280;58315;53.336;55.932;2023-04-25T01:26:09;100734.63;;;12.04;40.71
70730;BME280;58315;53.336;55.932;2023-04-25T01:28:36;100742.06;;;11.88;41.50
70730;BME280;58315;53.336;55.932;2023-04-25T01:31:03;100733.34;;;11.75;41.17
70730;BME280;58315;53.336;55.932;2023-04-25T01:33:30;100742.59;;;11.69;41.21
70730;BME280;58315;53.336;55.932;2023-04-25T01:35:56;100738.72;;;11.62;41.40
70730;BME280;58315;53.336;55.932;2023-04-25T01:38:22;100747.56;;;11.74;41.33
70730;BME280;58315;53.336;55.932;2023-04-25T01:40:51;100742.19;;;11.87;41.27
70730;BME280;58315;53.336;55.932;2023-04-25T01:43:19;100730.94;;;11.83;41.24
70730;BME280;58315;53.336;55.932;2023-04-25T01:45:45;100740.63;;;11.95;40.69
70730;BME280;58315;53.336;55.932;2023-04-25T01:48:13;100739.91;;;11.93;41.20
70730;BME280;58315;53.336;55.932;2023-04-25T01:50:41;100742.66;;;11.92;41.01
70730;BME280;58315;53.336;55.932;2023-04-25T01:53:09;100747.13;;;11.91;40.75
70730;BME280;58315;53.336;55.932;2023-04-25T01:55:36;100746.03;;;11.94;40.69
70730;BME280;58315;53.336;55.932;2023-04-25T01:58:06;100750.59;;;11.92;41.03
70730;BME280;58315;53.336;55.932;2023-04-25T02:01:11;100742.78;;;11.90;41.22
70730;BME280;58315;53.336;55.932;2023-04-25T02:03:44;100750.50;;;11.93;40.96
70730;BME280;58315;53.336;55.932;2023-04-25T02:06:19;100748.34;;;11.98;41.41
70730;BME280;58315;53.336;55.932;2023-04-25T02:08:46;100755.81;;;12.04;41.22
70730;BME280;58315;53.336;55.932;2023-04-25T02:11:13;100761.72;;;12.08;41.07
70730;BME280;58315;53.336;55.932;2023-04-25T02:13:49;100755.06;;;12.14;41.34
70730;BME280;58315;53.336;55.932;2023-04-25T02:16:38;100755.81;;;12.16;41.32
70730;BME280;58315;53.336;55.932;2023-04-25T02:19:06;100768.00;;;12.18;41.43
70730;BME280;58315;53.336;55.932;2023-04-25T02:21:33;100764.97;;;12.23;41.39
70730;BME280;58315;53.336;55.932;2023-04-25T02:24:01;100766.28;;;12.17;41.71
70730;BME280;58315;53.336;55.932;2023-04-25T02:26:29;100771.84;;;12.25;41.71
70730;BME280;58315;53.336;55.932;2023-04-25T02:28:56;100770.41;;;12.33;41.47
70730;BME280;58315;53.336;55.932;2023-04-25T02:31:23;100779.66;;;12.49;41.24
70730;BME280;58315;53.336;55.932;2023-04-25T02:33:50;100779.66;;;12.61;40.76
70730;BME280;58315;53.336;55.932;2023-04-25T02:36:16;100780.50;;;12.72;41.02
70730;BME280;58315;53.336;55.932;2023-04-25T02:38:42;100782.13;;;12.96;40.56
70730;BME280;58315;53.336;55.932;2023-04-25T02:41:08;100782.44;;;13.14;40.46
70730;BME280;58315;53.336;55.932;2023-04-25T02:43:34;100776.59;;;13.20;40.32
70730;BME280;58315;53.336;55.932;2023-04-25T02:46:00;100779.25;;;13.20;40.53
70730;BME280;58315;53.336;55.932;2023-04-25T02:48:26;100781.19;;;13.29;40.38
70730;BME280;58315;53.336;55.932;2023-04-25T02:50:52;100787.78;;;13.46;40.22
70730;BME280;58315;53.336;55.932;2023-04-25T02:53:19;100787.56;;;13.59;40.02
70730;BME280;58315;53.336;55.932;2023-04-25T02:55:48;100786.53;;;13.71;39.83
70730;BME280;58315;53.336;55.932;2023-04-25T02:58:15;100786.94;;;13.87;39.70
70730;BME280;58315;53.336;55.932;2023-04-25T03:00:50;100784.94;;;14.01;39.60
70730;BME280;58315;53.336;55.932;2023-04-25T03:03:16;100786.19;;;14.06;39.45
70730;BME280;58315;53.336;55.932;2023-04-25T03:05:44;100780.94;;;14.16;39.40
70730;BME280;58315;53.336;55.932;2023-04-25T03:08:12;100775.28;;;14.30;39.38
70730;BME280;58315;53.336;55.932;2023-04-25T03:10:38;100776.59;;;14.45;39.19
70730;BME280;58315;53.336;55.932;2023-04-25T03:13:07;100778.22;;;14.67;38.96
70730;BME280;58315;53.336;55.932;2023-04-25T03:15:34;100775.31;;;14.80;38.82
70730;BME280;58315;53.336;55.932;2023-04-25T03:18:01;100775.19;;;14.91;38.57
70730;BME280;58315;53.336;55.932;2023-04-25T03:20:27;100780.44;;;15.22;38.12
70730;BME280;58315;53.336;55.932;2023-04-25T03:22:54;100780.97;;;15.35;38.14
70730;BME280;58315;53.336;55.932;2023-04-25T03:25:20;100786.16;;;15.47;38.14
70730;BME280;58315;53.336;55.932;2023-04-25T03:27:46;100778.44;;;15.63;37.74
70730;BME280;58315;53.336;55.932;2023-04-25T03:30:12;100777.44;;;16.30;37.64
70730;BME280;58315;53.336;55.932;2023-04-25T03:32:40;100786.38;;;18.01;37.01
70730;BME280;58315;53.336;55.932;2023-04-25T03:35:07;100786.75;;;19.74;35.11
70730;BME280;58315;53.336;55.932;2023-04-25T03:37:34;100777.97;;;21.46;31.24
70730;BME280;58315;53.336;55.932;2023-04-25T03:40:00;100789.03;;;22.78;30.39
70730;BME280;58315;53.336;55.932;2023-04-25T03:42:40;100783.53;;;24.15;28.69
70730;BME280;58315;53.336;55.932;2023-04-25T03:45:06;100789.03;;;25.31;27.12
70730;BME280;58315;53.336;55.932;2023-04-25T03:47:33;100796.72;;;26.20;25.79
70730;BME280;58315;53.336;55.932;2023-04-25T03:49:59;100787.91;;;27.03;24.27
70730;BME280;58315;53.336;55.932;2023-04-25T03:52:30;100789.91;;;27.77;24.59
70730;BME280;58315;53.336;55.932;2023-04-25T03:54:56;100785.44;;;28.26;23.74
70730;BME280;58315;53.336;55.932;2023-04-25T03:57:24;100778.56;;;28.79;22.20
70730;BME280;58315;53.336;55.932;2023-04-25T03:59:50;100782.53;;;29.25;21.80
70730;BME280;58315;53.336;55.932;2023-04-25T04:02:17;100773.41;;;29.61;21.55
70730;BME280;58315;53.336;55.932;2023-04-25T04:04:43;100778.41;;;30.23;20.51
70730;BME280;58315;53.336;55.932;2023-04-25T04:07:10;100778.91;;;30.60;21.68
70730;BME280;58315;53.336;55.932;2023-04-25T04:09:39;100779.06;;;30.94;20.79
70730;BME280;58315;53.336;55.932;2023-04-25T04:12:12;100772.00;;;31.27;20.17
70730;BME280;58315;53.336;55.932;2023-04-25T04:14:40;100781.03;;;31.27;20.17
70730;BME280;58315;53.336;55.932;2023-04-25T04:17:06;100778.97;;;31.51;19.97
70730;BME280;58315;53.336;55.932;2023-04-25T04:19:32;100771.50;;;31.80;19.57
70730;BME280;58315;53.336;55.932;2023-04-25T04:22:07;100767.28;;;32.28;19.04
70730;BME280;58315;53.336;55.932;2023-04-25T04:24:34;100757.59;;;32.86;18.76
70730;BME280;58315;53.336;55.932;2023-04-25T04:27:04;100762.59;;;33.17;18.78
70730;BME280;58315;53.336;55.932;2023-04-25T04:29:50;100750.47;;;33.40;17.88
70730;BME280;58315;53.336;55.932;2023-04-25T04:32:32;100748.22;;;33.31;17.97
70730;BME280;58315;53.336;55.932;2023-04-25T04:34:59;100749.38;;;33.73;18.21
70730;BME280;58315;53.336;55.932;2023-04-25T04:37:25;100751.03;;;34.21;17.83
70730;BME280;58315;53.336;55.932;2023-04-25T04:39:51;100734.91;;;34.35;17.32
70730;BME280;58315;53.336;55.932;2023-04-25T04:42:45;100745.50;;;34.79;17.57
70730;BME280;58315;53.336;55.932;2023-04-25T04:45:20;100737.19;;;34.59;17.70
70730;BME280;58315;53.336;55.932;2023-04-25T04:48:06;100740.91;;;34.27;17.57
70730;BME280;58315;53.336;55.932;2023-04-25T04:50:56;100727.53;;;33.88;17.61
70730;BME280;58315;53.336;55.932;2023-04-25T04:53:41;100733.06;;;33.56;18.19
70730;BME280;58315;53.336;55.932;2023-04-25T04:56:13;100738.63;;;33.66;18.17
70730;BME280;58315;53.336;55.932;2023-04-25T04:59:09;100724.84;;;33.56;17.95
70730;BME280;58315;53.336;55.932;2023-04-25T05:02:02;100728.03;;;33.43;18.17
70730;BME280;58315;53.336;55.932;2023-04-25T05:04:56;100730.41;;;33.34;18.16
70730;BME280;58315;53.336;55.932;2023-04-25T05:07:57;100723.28;;;33.65;18.11
70730;BME280;58315;53.336;55.932;2023-04-25T05:10:41;100719.75;;;34.22;17.63
70730;BME280;58315;53.336;55.932;2023-04-25T05:13:31;100722.72;;;34.78;17.41
70730;BME280;58315;53.336;55.932;2023-04-25T05:16:13;100722.47;;;35.46;17.24
70730;BME280;58315;53.336;55.932;2023-04-25T05:19:11;100718.53;;;35.98;16.98
70730;BME280;58315;53.336;55.932;2023-04-25T05:21:50;100723.84;;;36.55;16.32
70730;BME280;58315;53.336;55.932;2023-04-25T05:24:55;100713.78;;;36.79;15.92
70730;BME280;58315;53.336;55.932;2023-04-25T05:27:49;100720.78;;;36.61;15.78
70730;BME280;58315;53.336;55.932;2023-04-25T05:30:40;100710.56;;;36.07;15.97
70730;BME280;58315;53.336;55.932;2023-04-25T05:33:35;100710.84;;;36.06;15.83
70730;BME280;58315;53.336;55.932;2023-04-25T05:36:01;100718.53;;;35.98;15.82
70730;BME280;58315;53.336;55.932;2023-04-25T05:38:27;100707.53;;;36.04;16.49
70730;BME280;58315;53.336;55.932;2023-04-25T05:41:12;100701.72;;;36.70;15.62
70730;BME280;58315;53.336;55.932;2023-04-25T05:43:46;100703.84;;;36.78;15.75
70730;BME280;58315;53.336;55.932;2023-04-25T05:46:25;100708.00;;;37.15;15.46
70730;BME280;58315;53.336;55.932;2023-04-25T05:49:15;100702.66;;;36.45;15.00
70730;BME280;58315;53.336;55.932;2023-04-25T05:52:03;100704.16;;;36.77;15.00
70730;BME280;58315;53.336;55.932;2023-04-25T05:54:46;100696.00;;;37.30;14.55
70730;BME280;58315;53.336;55.932;2023-04-25T05:57:23;100694.22;;;37.73;14.70
70730;BME280;58315;53.336;55.932;2023-04-25T05:59:51;100693.63;;;37.23;14.83
70730;BME280;58315;53.336;55.932;2023-04-25T06:02:18;100691.66;;;36.89;14.76
70730;BME280;58315;53.336;55.932;2023-04-25T06:04:44;100694.88;;;36.08;14.98
70730;BME280;58315;53.336;55.932;2023-04-25T06:07:11;100688.41;;;35.47;15.40
70730;BME280;58315;53.336;55.932;2023-04-25T06:09:37;100688.13;;;34.83;15.95
70730;BME280;58315;53.336;55.932;2023-04-25T06:12:05;100691.88;;;34.46;16.16
70730;BME280;58315;53.336;55.932;2023-04-25T06:14:33;100687.53;;;33.92;16.17
70730;BME280;58315;53.336;55.932;2023-04-25T06:16:59;100675.28;;;32.93;16.88
70730;BME280;58315;53.336;55.932;2023-04-25T06:19:26;100661.84;;;31.72;17.88
70730;BME280;58315;53.336;55.932;2023-04-25T06:21:52;100670.72;;;30.94;17.89
70730;BME280;58315;53.336;55.932;2023-04-25T06:24:19;100675.16;;;30.26;18.43
70730;BME280;58315;53.336;55.932;2023-04-25T06:26:45;100672.19;;;29.64;19.13
70730;BME280;58315;53.336;55.932;2023-04-25T06:29:13;100663.03;;;29.23;19.21
70730;BME280;58315;53.336;55.932;2023-04-25T06:31:39;100671.22;;;28.81;19.91
70730;BME280;58315;53.336;55.932;2023-04-25T06:34:06;100661.34;;;28.69;19.90
70730;BME280;58315;53.336;55.932;2023-04-25T06:36:35;100666.56;;;28.22;20.32
70730;BME280;58315;53.336;55.932;2023-04-25T06:39:06;100659.81;;;27.76;20.90
70730;BME280;58315;53.336;55.932;2023-04-25T06:41:32;100666.75;;;27.47;21.78
70730;BME280;58315;53.336;55.932;2023-04-25T06:44:01;100643.44;;;27.39;21.28
70730;BME280;58315;53.336;55.932;2023-04-25T06:46:32;100654.69;;;27.43;21.64
70730;BME280;58315;53.336;55.932;2023-04-25T06:48:59;100657.38;;;27.24;21.14
70730;BME280;58315;53.336;55.932;2023-04-25T06:51:25;100645.50;;;27.19;21.09
70730;BME280;58315;53.336;55.932;2023-04-25T06:53:54;100655.38;;;27.06;21.76
70730;BME280;58315;53.336;55.932;2023-04-25T06:56:38;100645.03;;;26.65;21.65
70730;BME280;58315;53.336;55.932;2023-04-25T06:59:10;100638.50;;;26.73;21.62
70730;BME280;58315;53.336;55.932;2023-04-25T07:01:38;100646.56;;;26.86;21.62
70730;BME280;58315;53.336;55.932;2023-04-25T07:04:09;100644.09;;;26.84;21.84
70730;BME280;58315;53.336;55.932;2023-04-25T07:06:40;100640.34;;;26.79;21.87
70730;BME280;58315;53.336;55.932;2023-04-25T07:09:09;100636.81;;;26.78;21.82
70730;BME280;58315;53.336;55.932;2023-04-25T07:11:36;100634.50;;;26.82;21.94
70730;BME280;58315;53.336;55.932;2023-04-25T07:14:02;100635.47;;;26.87;21.88
70730;BME280;58315;53.336;55.932;2023-04-25T07:16:28;100628.41;;;26.86;21.61
70730;BME280;58315;53.336;55.932;2023-04-25T07:18:55;100633.25;;;26.84;21.71
70730;BME280;58315;53.336;55.932;2023-04-25T07:21:21;100638.94;;;27.01;21.76
70730;BME280;58315;53.336;55.932;2023-04-25T07:23:50;100629.09;;;27.07;22.24
70730;BME280;58315;53.336;55.932;2023-04-25T07:26:21;100626.56;;;27.12;22.11
70730;BME280;58315;53.336;55.932;2023-04-25T07:29:10;100620.13;;;27.31;21.88
70730;BME280;58315;53.336;55.932;2023-04-25T07:31:36;100615.59;;;27.25;21.64
70730;BME280;58315;53.336;55.932;2023-04-25T07:34:05;100608.22;;;26.82;21.38
70730;BME280;58315;53.336;55.932;2023-04-25T07:36:31;100600.13;;;27.01;21.34
70730;BME280;58315;53.336;55.932;2023-04-25T07:38:57;100615.56;;;27.00;21.88
70730;BME280;58315;53.336;55.932;2023-04-25T07:41:23;100610.09;;;26.82;21.50
70730;BME280;58315;53.336;55.932;2023-04-25T07:43:50;100595.66;;;26.63;21.64
70730;BME280;58315;53.336;55.932;2023-04-25T07:46:16;100596.13;;;26.53;21.52
70730;BME280;58315;53.336;55.932;2023-04-25T07:48:42;100607.03;;;26.72;21.77
70730;BME280;58315;53.336;55.932;2023-04-25T07:51:08;100594.16;;;26.67;21.24
70730;BME280;58315;53.336;55.932;2023-04-25T07:53:36;100601.06;;;26.63;21.36
70730;BME280;58315;53.336;55.932;2023-04-25T07:56:07;100582.81;;;26.45;21.48
70730;BME280;58315;53.336;55.932;2023-04-25T07:58:37;100599.97;;;26.71;20.79
70730;BME280;58315;53.336;55.932;2023-04-25T08:01:05;100591.78;;;26.77;20.65
70730;BME280;58315;53.336;55.932;2023-04-25T08:03:34;100587.28;;;26.89;20.39
70730;BME280;58315;53.336;55.932;2023-04-25T08:06:03;100576.31;;;26.84;20.47
70730;BME280;58315;53.336;55.932;2023-04-25T08:08:31;100570.16;;;26.96;20.72
70730;BME280;58315;53.336;55.932;2023-04-25T08:10:58;100567.44;;;26.96;20.67
70730;BME280;58315;53.336;55.932;2023-04-25T08:13:24;100570.75;;;26.98;20.44
70730;BME280;58315;53.336;55.932;2023-04-25T08:15:51;100574.22;;;26.80;20.46
70730;BME280;58315;53.336;55.932;2023-04-25T08:18:17;100579.56;;;26.93;20.37
70730;BME280;58315;53.336;55.932;2023-04-25T08:20:44;100553.56;;;26.85;20.10
70730;BME280;58315;53.336;55.932;2023-04-25T08:23:11;100568.31;;;26.89;20.28
70730;BME280;58315;53.336;55.932;2023-04-25T08:25:47;100560.09;;;26.78;20.84
70730;BME280;58315;53.336;55.932;2023-04-25T08:28:16;100557.84;;;26.93;20.42
70730;BME280;58315;53.336;55.932;2023-04-25T08:30:43;100553.72;;;27.09;19.93
70730;BME280;58315;53.336;55.932;2023-04-25T08:33:12;100550.19;;;27.08;19.59
70730;BME280;58315;53.336;55.932;2023-04-25T08:35:48;100556.44;;;27.09;20.33
70730;BME280;58315;53.336;55.932;2023-04-25T08:38:15;100537.75;;;27.01;20.30
70730;BME280;58315;53.336;55.932;2023-04-25T08:40:43;100534.78;;;26.84;20.26
70730;BME280;58315;53.336;55.932;2023-04-25T08:43:18;100531.97;;;26.72;20.32
70730;BME280;58315;53.336;55.932;2023-04-25T08:45:45;100541.09;;;26.78;20.36
70730;BME280;58315;53.336;55.932;2023-04-25T08:48:32;100529.09;;;26.92;19.95
70730;BME280;58315;53.336;55.932;2023-04-25T08:51:02;100526.16;;;26.93;20.12
70730;BME280;58315;53.336;55.932;2023-04-25T08:53:31;100530.69;;;27.00;20.04
70730;BME280;58315;53.336;55.932;2023-04-25T08:55:59;100517.63;;;27.15;19.96
70730;BME280;58315;53.336;55.932;2023-04-25T08:58:25;100522.38;;;26.94;20.07
70730;BME280;58315;53.336;55.932;2023-04-25T09:00:52;100519.94;;;26.86;19.66
70730;BME280;58315;53.336;55.932;2023-04-25T09:03:21;100517.91;;;26.82;20.08
70730;BME280;58315;53.336;55.932;2023-04-25T09:05:48;100517.09;;;26.81;20.17
70730;BME280;58315;53.336;55.932;2023-04-25T09:08:15;100513.59;;;26.74;20.07
70730;BME280;58315;53.336;55.932;2023-04-25T09:10:42;100511.81;;;26.86;19.94
70730;BME280;58315;53.336;55.932;2023-04-25T09:13:11;100506.19;;;26.88;19.97
70730;BME280;58315;53.336;55.932;2023-04-25T09:16:05;100505.25;;;26.76;20.53
70730;BME280;58315;53.336;55.932;2023-04-25T09:18:47;100505.03;;;26.77;20.42
70730;BME280;58315;53.336;55.932;2023-04-25T09:21:13;100504.69;;;26.67;20.41
70730;BME280;58315;53.336;55.932;2023-04-25T09:23:49;100505.09;;;26.71;20.28
70730;BME280;58315;53.336;55.932;2023-04-25T09:26:20;100513.41;;;26.44;20.81
70730;BME280;58315;53.336;55.932;2023-04-25T09:28:46;100503.72;;;26.30;20.85
70730;BME280;58315;53.336;55.932;2023-04-25T09:31:22;100498.03;;;26.06;20.40
70730;BME280;58315;53.336;55.932;2023-04-25T09:34:01;100504.19;;;26.20;20.54
70730;BME280;58315;53.336;55.932;2023-04-25T09:36:30;100507.34;;;26.17;20.07
70730;BME280;58315;53.336;55.932;2023-04-25T09:39:15;100496.53;;;26.10;20.20
70730;BME280;58315;53.336;55.932;2023-04-25T09:41:44;100497.13;;;26.19;20.25
70730;BME280;58315;53.336;55.932;2023-04-25T09:44:12;100501.78;;;26.37;20.73
70730;BME280;58315;53.336;55.932;2023-04-25T09:46:40;100489.91;;;26.38;20.11
70730;BME280;58315;53.336;55.932;2023-04-25T09:49:14;100484.03;;;26.48;20.23
70730;BME280;58315;53.336;55.932;2023-04-25T09:51:59;100482.06;;;26.30;20.72
70730;BME280;58315;53.336;55.932;2023-04-25T09:54:35;100487.47;;;26.30;21.23
70730;BME280;58315;53.336;55.932;2023-04-25T09:57:20;100469.56;;;26.54;20.09
70730;BME280;58315;53.336;55.932;2023-04-25T09:59:50;100467.09;;;26.52;19.71
70730;BME280;58315;53.336;55.932;2023-04-25T10:02:25;100467.47;;;26.56;19.97
70730;BME280;58315;53.336;55.932;2023-04-25T10:04:55;100471.06;;;26.50;19.69
70730;BME280;58315;53.336;55.932;2023-04-25T10:07:31;100468.63;;;26.41;20.05
70730;BME280;58315;53.336;55.932;2023-04-25T10:10:02;100469.00;;;26.45;20.14
70730;BME280;58315;53.336;55.932;2023-04-25T10:12:33;100450.97;;;26.32;19.96
70730;BME280;58315;53.336;55.932;2023-04-25T10:14:59;100450.56;;;26.29;20.17
70730;BME280;58315;53.336;55.932;2023-04-25T10:17:30;100457.34;;;26.44;20.48
70730;BME280;58315;53.336;55.932;2023-04-25T10:19:57;100441.88;;;26.52;20.54
70730;BME280;58315;53.336;55.932;2023-04-25T10:22:32;100453.34;;;26.72;20.18
70730;BME280;58315;53.336;55.932;2023-04-25T10:25:01;100436.31;;;26.65;20.14
70730;BME280;58315;53.336;55.932;2023-04-25T10:27:31;100450.38;;;26.80;20.71
70730;BME280;58315;53.336;55.932;2023-04-25T10:30:13;100448.13;;;26.96;19.25
70730;BME280;58315;53.336;55.932;2023-04-25T10:32:44;100439.00;;;26.90;19.53
70730;BME280;58315;53.336;55.932;2023-04-25T10:35:28;100440.19;;;26.76;19.15
70730;BME280;58315;53.336;55.932;2023-04-25T10:38:10;100438.81;;;26.66;19.36
70730;BME280;58315;53.336;55.932;2023-04-25T10:40:38;100427.28;;;26.53;19.59
70730;BME280;58315;53.336;55.932;2023-04-25T10:45:57;100426.88;;;26.49;19.42
70730;BME280;58315;53.336;55.932;2023-04-25T10:48:29;100427.16;;;26.66;19.56
70730;BME280;58315;53.336;55.932;2023-04-25T10:51:08;100411.41;;;26.75;19.30
70730;BME280;58315;53.336;55.932;2023-04-25T10:53:35;100422.63;;;26.60;19.86
70730;BME280;58315;53.336;55.932;2023-04-25T10:56:11;100417.53;;;26.70;19.45
70730;BME280;58315;53.336;55.932;2023-04-25T10:58:48;100414.56;;;26.72;19.46
70730;BME280;58315;53.336;55.932;2023-04-25T11:01:19;100423.00;;;26.63;19.50
70730;BME280;58315;53.336;55.932;2023-04-25T11:03:46;100424.34;;;26.54;19.48
70730;BME280;58315;53.336;55.932;2023-04-25T11:06:46;100410.44;;;26.87;18.91
70730;BME280;58315;53.336;55.932;2023-04-25T11:09:17;100401.94;;;26.84;19.24
70730;BME280;58315;53.336;55.932;2023-04-25T11:11:53;100415.03;;;26.87;19.36
70730;BME280;58315;53.336;55.932;2023-04-25T11:14:20;100414.19;;;26.68;18.81
70730;BME280;58315;53.336;55.932;2023-04-25T11:16:46;100409.50;;;26.57;18.57
70730;BME280;58315;53.336;55.932;2023-04-25T11:19:12;100400.81;;;26.55;19.06
70730;BME280;58315;53.336;55.932;2023-04-25T11:21:38;100401.31;;;26.63;19.33
70730;BME280;58315;53.336;55.932;2023-04-25T11:24:04;100404.25;;;26.62;19.27
70730;BME280;58315;53.336;55.932;2023-04-25T11:26:30;100414.72;;;26.58;19.55
70730;BME280;58315;53.336;55.932;2023-04-25T11:28:57;100405.91;;;26.63;19.69
70730;BME280;58315;53.336;55.932;2023-04-25T11:31:25;100385.41;;;26.49;19.92
70730;BME280;58315;53.336;55.932;2023-04-25T11:33:53;100400.94;;;26.60;19.48
70730;BME280;58315;53.336;55.932;2023-04-25T11:36:19;100397.03;;;26.56;19.83
70730;BME280;58315;53.336;55.932;2023-04-25T11:38:45;100393.25;;;26.57;19.66
70730;BME280;58315;53.336;55.932;2023-04-25T11:41:11;100397.91;;;26.50;20.00
70730;BME280;58315;53.336;55.932;2023-04-25T11:43:38;100384.75;;;26.53;19.65
70730;BME280;58315;53.336;55.932;2023-04-25T11:46:07;100396.16;;;26.80;19.73
70730;BME280;58315;53.336;55.932;2023-04-25T11:48:40;100395.16;;;26.93;19.54
70730;BME280;58315;53.336;55.932;2023-04-25T11:51:07;100391.31;;;27.01;19.24
70730;BME280;58315;53.336;55.932;2023-04-25T11:53:34;100384.53;;;27.10;18.93
70730;BME280;58315;53.336;55.932;2023-04-25T11:56:01;100384.25;;;27.18;19.55
70730;BME280;58315;53.336;55.932;2023-04-25T11:58:27;100382.75;;;27.22;19.04
70730;BME280;58315;53.336;55.932;2023-04-25T12:00:53;100385.97;;;27.12;19.14
70730;BME280;58315;53.336;55.932;2023-04-25T12:03:19;100379.97;;;26.92;18.92
70730;BME280;58315;53.336;55.932;2023-04-25T12:05:47;100372.41;;;26.94;19.33
70730;BME280;58315;53.336;55.932;2023-04-25T12:08:13;100383.50;;;26.92;18.93
70730;BME280;58315;53.336;55.932;2023-04-25T12:10:42;100376.03;;;26.88;19.42
70730;BME280;58315;53.336;55.932;2023-04-25T12:13:22;100378.38;;;27.03;19.10
70730;BME280;58315;53.336;55.932;2023-04-25T12:15:48;100365.19;;;27.06;18.92
70730;BME280;58315;53.336;55.932;2023-04-25T12:18:14;100358.03;;;27.12;19.08
70730;BME280;58315;53.336;55.932;2023-04-25T12:20:41;100352.44;;;27.25;19.03
70730;BME280;58315;53.336;55.932;2023-04-25T12:23:08;100350.84;;;27.36;19.01
70730;BME280;58315;53.336;55.932;2023-04-25T12:25:39;100336.13;;;27.44;18.54
70730;BME280;58315;53.336;55.932;2023-04-25T12:31:01;100339.31;;;27.52;18.44
70730;BME280;58315;53.336;55.932;2023-04-25T12:33:34;100328.91;;;27.37;18.64
70730;BME280;58315;53.336;55.932;2023-04-25T12:36:03;100321.41;;;27.21;18.38
70730;BME280;58315;53.336;55.932;2023-04-25T12:38:41;100321.25;;;27.16;18.29
70730;BME280;58315;53.336;55.932;2023-04-25T12:41:08;100310.00;;;26.82;18.08
70730;BME280;58315;53.336;55.932;2023-04-25T12:43:34;100320.09;;;26.57;18.91
70730;BME280;58315;53.336;55.932;2023-04-25T12:46:01;100310.13;;;26.69;18.78
70730;BME280;58315;53.336;55.932;2023-04-25T12:48:27;100314.91;;;26.74;18.76
70730;BME280;58315;53.336;55.932;2023-04-25T12:50:53;100310.50;;;26.54;18.38
70730;BME280;58315;53.336;55.932;2023-04-25T12:53:20;100310.13;;;26.51;18.30
70730;BME280;58315;53.336;55.932;2023-04-25T12:55:47;100303.09;;;26.43;18.68
70730;BME280;58315;53.336;55.932;2023-04-25T12:58:14;100310.22;;;26.44;18.31
70730;BME280;58315;53.336;55.932;2023-04-25T13:00:40;100300.41;;;26.43;18.27
70730;BME280;58315;53.336;55.932;2023-04-25T13:03:06;100315.00;;;26.42;18.15